sensor_id;sensor_type;location;lat;lon;timestamp;pressure;altitude;pressure_sealevel;temperature;humidity
84043;BME280;74129;52.540;13.416;2024-01-10T00:01:32;102842.00;;;-4.09;55.56
84043;BME280;74129;52.540;13.416;2024-01-10T00:04:04;102831.75;;;-4.05;55.48
84043;BME280;74129;52.540;13.416;2024-01-10T00:06:39;102828.81;;;-4.05;55.59
84043;BME280;74129;52.540;13.416;2024-01-10T00:09:18;102826.61;;;-4.09;55.65
84043;BME280;74129;52.540;13.416;2024-01-10T00:11:45;102827.16;;;-4.09;55.69
84043;BME280;74129;52.540;13.416;2024-01-10T00:14:17;102829.29;;;-4.07;55.48
84043;BME280;74129;52.540;13.416;2024-01-10T00:16:46;102825.99;;;-4.13;55.64
84043;BME280;74129;52.540;13.416;2024-01-10T00:19:18;102825.56;;;-4.14;55.57
84043;BME280;74129;52.540;13.416;2024-01-10T00:21:56;102827.57;;;-4.15;55.39
84043;BME280;74129;52.540;13.416;2024-01-10T00:24:23;102822.71;;;-4.16;55.61
84043;BME280;74129;52.540;13.416;2024-01-10T00:26:55;102819.30;;;-4.23;55.70
84043;BME280;74129;52.540;13.416;2024-01-10T00:29:30;102815.48;;;-4.23;55.63
84043;BME280;74129;52.540;13.416;2024-01-10T00:31:57;102818.52;;;-4.19;55.64
84043;BME280;74129;52.540;13.416;2024-01-10T00:34:46;102817.71;;;-4.17;55.42
84043;BME280;74129;52.540;13.416;2024-01-10T00:37:18;102811.54;;;-4.17;55.51
84043;BME280;74129;52.540;13.416;2024-01-10T00:39:45;102811.25;;;-4.20;55.67
84043;BME280;74129;52.540;13.416;2024-01-10T00:42:21;102815.75;;;-4.22;55.61
84043;BME280;74129;52.540;13.416;2024-01-10T00:44:59;102812.61;;;-4.23;55.78
84043;BME280;74129;52.540;13.416;2024-01-10T00:47:32;102810.27;;;-4.21;55.35
84043;BME280;74129;52.540;13.416;2024-01-10T00:49:58;102801.14;;;-4.21;55.66
84043;BME280;74129;52.540;13.416;2024-01-10T00:52:27;102799.89;;;-4.24;55.59
84043;BME280;74129;52.540;13.416;2024-01-10T00:55:00;102800.44;;;-4.21;55.56
84043;BME280;74129;52.540;13.416;2024-01-10T00:57:35;102797.47;;;-4.16;55.76
84043;BME280;74129;52.540;13.416;2024-01-10T01:00:08;102795.52;;;-4.16;55.79
84043;BME280;74129;52.540;13.416;2024-01-10T01:02:36;102790.62;;;-4.18;55.79
84043;BME280;74129;52.540;13.416;2024-01-10T01:05:03;102789.27;;;-4.24;55.55
84043;BME280;74129;52.540;13.416;2024-01-10T01:07:30;102789.23;;;-4.24;55.79
84043;BME280;74129;52.540;13.416;2024-01-10T01:09:57;102784.48;;;-4.24;55.91
84043;BME280;74129;52.540;13.416;2024-01-10T01:12:24;102790.45;;;-4.21;55.90
84043;BME280;74129;52.540;13.416;2024-01-10T01:14:50;102794.55;;;-4.22;56.05
84043;BME280;74129;52.540;13.416;2024-01-10T01:17:20;102796.72;;;-4.20;55.87
84043;BME280;74129;52.540;13.416;2024-01-10T01:19:55;102790.36;;;-4.19;55.77
84043;BME280;74129;52.540;13.416;2024-01-10T01:22:22;102792.62;;;-4.22;56.04
84043;BME280;74129;52.540;13.416;2024-01-10T01:24:56;102796.05;;;-4.21;56.06
84043;BME280;74129;52.540;13.416;2024-01-10T01:27:22;102790.19;;;-4.19;55.67
84043;BME280;74129;52.540;13.416;2024-01-10T01:30:01;102784.27;;;-4.26;55.61
84043;BME280;74129;52.540;13.416;2024-01-10T01:32:30;102790.09;;;-4.26;55.97
84043;BME280;74129;52.540;13.416;2024-01-10T01:34:57;102786.80;;;-4.27;55.81
84043;BME280;74129;52.540;13.416;2024-01-10T01:37:31;102797.33;;;-4.25;55.61
84043;BME280;74129;52.540;13.416;2024-01-10T01:40:17;102794.33;;;-4.21;55.60
84043;BME280;74129;52.540;13.416;2024-01-10T01:42:55;102791.19;;;-4.19;55.63
84043;BME280;74129;52.540;13.416;2024-01-10T01:45:28;102790.92;;;-4.20;55.48
84043;BME280;74129;52.540;13.416;2024-01-10T01:48:00;102789.13;;;-4.19;55.20
84043;BME280;74129;52.540;13.416;2024-01-10T01:50:29;102786.67;;;-4.14;55.00
84043;BME280;74129;52.540;13.416;2024-01-10T01:53:06;102785.15;;;-4.15;55.02
84043;BME280;74129;52.540;13.416;2024-01-10T01:55:35;102782.89;;;-4.20;54.77
84043;BME280;74129;52.540;13.416;2024-01-10T01:58:05;102779.05;;;-4.21;54.83
84043;BME280;74129;52.540;13.416;2024-01-10T02:00:35;102774.34;;;-4.21;54.92
84043;BME280;74129;52.540;13.416;2024-01-10T02:03:26;102779.38;;;-4.23;54.99
84043;BME280;74129;52.540;13.416;2024-01-10T02:05:56;102777.77;;;-4.23;54.78
84043;BME280;74129;52.540;13.416;2024-01-10T02:08:33;102775.35;;;-4.20;54.60
84043;BME280;74129;52.540;13.416;2024-01-10T02:11:10;102775.98;;;-4.14;54.83
84043;BME280;74129;52.540;13.416;2024-01-10T02:13:42;102774.45;;;-4.15;54.47
84043;BME280;74129;52.540;13.416;2024-01-10T02:16:10;102780.48;;;-4.16;54.44
84043;BME280;74129;52.540;13.416;2024-01-10T02:18:43;102782.52;;;-4.15;54.65
84043;BME280;74129;52.540;13.416;2024-01-10T02:21:12;102784.33;;;-4.13;54.23
84043;BME280;74129;52.540;13.416;2024-01-10T02:23:38;102786.98;;;-4.14;54.15
84043;BME280;74129;52.540;13.416;2024-01-10T02:26:05;102782.08;;;-4.16;54.17
84043;BME280;74129;52.540;13.416;2024-01-10T02:28:38;102785.39;;;-4.14;54.18
84043;BME280;74129;52.540;13.416;2024-01-10T02:31:28;102784.35;;;-4.16;53.94
84043;BME280;74129;52.540;13.416;2024-01-10T02:34:02;102782.23;;;-4.22;54.00
84043;BME280;74129;52.540;13.416;2024-01-10T02:36:34;102784.84;;;-4.29;53.99
84043;BME280;74129;52.540;13.416;2024-01-10T02:39:06;102787.80;;;-4.34;54.21
84043;BME280;74129;52.540;13.416;2024-01-10T02:41:40;102784.81;;;-4.39;54.52
84043;BME280;74129;52.540;13.416;2024-01-10T02:44:10;102784.02;;;-4.38;54.36
84043;BME280;74129;52.540;13.416;2024-01-10T02:46:39;102783.20;;;-4.38;54.21
84043;BME280;74129;52.540;13.416;2024-01-10T02:49:06;102778.24;;;-4.40;54.36
84043;BME280;74129;52.540;13.416;2024-01-10T02:51:38;102778.70;;;-4.42;54.63
84043;BME280;74129;52.540;13.416;2024-01-10T02:54:09;102778.17;;;-4.41;54.49
84043;BME280;74129;52.540;13.416;2024-01-10T02:56:43;102776.92;;;-4.44;54.99
84043;BME280;74129;52.540;13.416;2024-01-10T02:59:13;102775.03;;;-4.45;55.14
84043;BME280;74129;52.540;13.416;2024-01-10T03:01:47;102769.30;;;-4.50;55.15
84043;BME280;74129;52.540;13.416;2024-01-10T03:04:24;102764.83;;;-4.54;55.32
84043;BME280;74129;52.540;13.416;2024-01-10T03:06:56;102761.45;;;-4.59;55.48
84043;BME280;74129;52.540;13.416;2024-01-10T03:09:26;102764.25;;;-4.64;55.15
84043;BME280;74129;52.540;13.416;2024-01-10T03:11:58;102764.86;;;-4.68;55.53
84043;BME280;74129;52.540;13.416;2024-01-10T03:14:34;102762.88;;;-4.72;55.77
84043;BME280;74129;52.540;13.416;2024-01-10T03:17:03;102764.09;;;-4.72;55.80
84043;BME280;74129;52.540;13.416;2024-01-10T03:19:32;102763.91;;;-4.69;55.60
84043;BME280;74129;52.540;13.416;2024-01-10T03:21:59;102764.86;;;-4.68;55.55
84043;BME280;74129;52.540;13.416;2024-01-10T03:24:26;102768.50;;;-4.67;55.59
84043;BME280;74129;52.540;13.416;2024-01-10T03:26:59;102764.11;;;-4.68;55.60
84043;BME280;74129;52.540;13.416;2024-01-10T03:29:28;102759.00;;;-4.67;55.61
84043;BME280;74129;52.540;13.416;2024-01-10T03:31:55;102758.06;;;-4.63;55.59
84043;BME280;74129;52.540;13.416;2024-01-10T03:34:25;102758.98;;;-4.61;55.57
84043;BME280;74129;52.540;13.416;2024-01-10T03:36:57;102763.98;;;-4.60;55.43
84043;BME280;74129;52.540;13.416;2024-01-10T03:39:23;102761.28;;;-4.59;55.12
84043;BME280;74129;52.540;13.416;2024-01-10T03:41:55;102758.27;;;-4.58;55.34
84043;BME280;74129;52.540;13.416;2024-01-10T03:44:26;102760.23;;;-4.59;55.18
84043;BME280;74129;52.540;13.416;2024-01-10T03:47:07;102759.41;;;-4.60;55.31
84043;BME280;74129;52.540;13.416;2024-01-10T03:49:36;102755.40;;;-4.65;55.27
84043;BME280;74129;52.540;13.416;2024-01-10T03:52:17;102755.08;;;-4.68;55.88
84043;BME280;74129;52.540;13.416;2024-01-10T03:54:52;102753.37;;;-4.71;55.75
84043;BME280;74129;52.540;13.416;2024-01-10T03:57:22;102750.24;;;-4.72;55.65
84043;BME280;74129;52.540;13.416;2024-01-10T03:59:48;102750.00;;;-4.71;55.26
84043;BME280;74129;52.540;13.416;2024-01-10T04:02:17;102747.27;;;-4.75;55.76
84043;BME280;74129;52.540;13.416;2024-01-10T04:04:44;102742.44;;;-4.73;55.72
84043;BME280;74129;52.540;13.416;2024-01-10T04:07:13;102739.21;;;-4.69;55.58
84043;BME280;74129;52.540;13.416;2024-01-10T04:09:43;102740.23;;;-4.69;55.36
84043;BME280;74129;52.540;13.416;2024-01-10T04:12:12;102737.20;;;-4.71;55.47
84043;BME280;74129;52.540;13.416;2024-01-10T04:14:48;102730.64;;;-4.72;55.27
84043;BME280;74129;52.540;13.416;2024-01-10T04:17:15;102728.44;;;-4.71;55.53
84043;BME280;74129;52.540;13.416;2024-01-10T04:19:47;102725.14;;;-4.68;55.21
84043;BME280;74129;52.540;13.416;2024-01-10T04:22:13;102721.64;;;-4.73;55.35
84043;BME280;74129;52.540;13.416;2024-01-10T04:24:40;102723.41;;;-4.79;55.36
84043;BME280;74129;52.540;13.416;2024-01-10T04:27:10;102725.20;;;-4.77;55.36
84043;BME280;74129;52.540;13.416;2024-01-10T04:29:37;102725.20;;;-4.77;55.69
84043;BME280;74129;52.540;13.416;2024-01-10T04:32:12;102727.09;;;-4.76;55.44
84043;BME280;74129;52.540;13.416;2024-01-10T04:34:46;102725.23;;;-4.72;55.63
84043;BME280;74129;52.540;13.416;2024-01-10T04:37:12;102723.41;;;-4.74;55.30
84043;BME280;74129;52.540;13.416;2024-01-10T04:39:41;102725.21;;;-4.75;55.40
84043;BME280;74129;52.540;13.416;2024-01-10T04:42:26;102727.77;;;-4.74;55.31
84043;BME280;74129;52.540;13.416;2024-01-10T04:45:00;102729.10;;;-4.70;55.38
84043;BME280;74129;52.540;13.416;2024-01-10T04:47:33;102725.45;;;-4.70;55.60
84043;BME280;74129;52.540;13.416;2024-01-10T04:50:02;102725.45;;;-4.73;55.24
84043;BME280;74129;52.540;13.416;2024-01-10T04:52:46;102727.71;;;-4.78;55.38
84043;BME280;74129;52.540;13.416;2024-01-10T04:55:22;102730.84;;;-4.75;55.64
84043;BME280;74129;52.540;13.416;2024-01-10T04:57:55;102732.58;;;-4.75;55.41
84043;BME280;74129;52.540;13.416;2024-01-10T05:00:24;102734.64;;;-4.77;55.26
84043;BME280;74129;52.540;13.416;2024-01-10T05:03:06;102734.48;;;-4.83;55.28
84043;BME280;74129;52.540;13.416;2024-01-10T05:05:33;102731.61;;;-4.85;55.62
84043;BME280;74129;52.540;13.416;2024-01-10T05:08:08;102731.35;;;-4.85;55.53
84043;BME280;74129;52.540;13.416;2024-01-10T05:10:34;102731.77;;;-4.89;55.48
84043;BME280;74129;52.540;13.416;2024-01-10T05:13:04;102730.85;;;-4.89;55.69
84043;BME280;74129;52.540;13.416;2024-01-10T05:15:30;102723.95;;;-4.93;55.64
84043;BME280;74129;52.540;13.416;2024-01-10T05:18:16;102725.89;;;-4.93;55.68
84043;BME280;74129;52.540;13.416;2024-01-10T05:20:43;102729.06;;;-4.96;55.93
84043;BME280;74129;52.540;13.416;2024-01-10T05:23:32;102731.63;;;-4.97;55.93
84043;BME280;74129;52.540;13.416;2024-01-10T05:25:59;102734.46;;;-4.98;55.80
84043;BME280;74129;52.540;13.416;2024-01-10T05:28:35;102739.20;;;-4.98;55.84
84043;BME280;74129;52.540;13.416;2024-01-10T05:31:04;102742.11;;;-4.97;55.90
84043;BME280;74129;52.540;13.416;2024-01-10T05:33:31;102740.52;;;-4.97;56.08
84043;BME280;74129;52.540;13.416;2024-01-10T05:36:01;102733.95;;;-4.98;56.01
84043;BME280;74129;52.540;13.416;2024-01-10T05:38:31;102732.31;;;-4.97;55.81
84043;BME280;74129;52.540;13.416;2024-01-10T05:41:11;102728.91;;;-4.99;55.73
84043;BME280;74129;52.540;13.416;2024-01-10T05:43:41;102726.42;;;-4.96;55.99
84043;BME280;74129;52.540;13.416;2024-01-10T05:46:09;102725.73;;;-4.96;56.20
84043;BME280;74129;52.540;13.416;2024-01-10T05:48:50;102723.91;;;-4.95;55.99
84043;BME280;74129;52.540;13.416;2024-01-10T05:51:20;102725.52;;;-4.90;55.86
84043;BME280;74129;52.540;13.416;2024-01-10T05:53:52;102724.23;;;-4.84;55.83
84043;BME280;74129;52.540;13.416;2024-01-10T05:56:21;102725.15;;;-4.79;55.60
84043;BME280;74129;52.540;13.416;2024-01-10T05:58:49;102721.88;;;-4.77;55.81
84043;BME280;74129;52.540;13.416;2024-01-10T06:01:22;102728.08;;;-4.78;55.79
84043;BME280;74129;52.540;13.416;2024-01-10T06:03:54;102725.27;;;-4.81;55.81
84043;BME280;74129;52.540;13.416;2024-01-10T06:06:34;102723.11;;;-4.83;56.13
84043;BME280;74129;52.540;13.416;2024-01-10T06:09:01;102716.11;;;-4.80;55.97
84043;BME280;74129;52.540;13.416;2024-01-10T06:11:28;102719.00;;;-4.79;55.64
84043;BME280;74129;52.540;13.416;2024-01-10T06:14:04;102715.34;;;-4.79;55.86
84043;BME280;74129;52.540;13.416;2024-01-10T06:16:37;102713.48;;;-4.77;55.85
84043;BME280;74129;52.540;13.416;2024-01-10T06:19:08;102710.92;;;-4.78;55.73
84043;BME280;74129;52.540;13.416;2024-01-10T06:21:41;102712.77;;;-4.77;55.84
84043;BME280;74129;52.540;13.416;2024-01-10T06:24:18;102708.98;;;-4.75;55.99
84043;BME280;74129;52.540;13.416;2024-01-10T06:26:53;102704.85;;;-4.74;55.90
84043;BME280;74129;52.540;13.416;2024-01-10T06:29:22;102696.53;;;-4.75;56.13
84043;BME280;74129;52.540;13.416;2024-01-10T06:32:03;102694.00;;;-4.74;56.04
84043;BME280;74129;52.540;13.416;2024-01-10T06:34:40;102698.96;;;-4.72;55.54
84043;BME280;74129;52.540;13.416;2024-01-10T06:37:13;102703.23;;;-4.68;55.57
84043;BME280;74129;52.540;13.416;2024-01-10T06:39:56;102704.02;;;-4.61;55.55
84043;BME280;74129;52.540;13.416;2024-01-10T06:42:33;102701.27;;;-4.57;55.55
84043;BME280;74129;52.540;13.416;2024-01-10T06:45:20;102705.24;;;-4.59;55.52
84043;BME280;74129;52.540;13.416;2024-01-10T06:48:28;102708.70;;;-4.58;55.53
84043;BME280;74129;52.540;13.416;2024-01-10T06:50:58;102709.77;;;-4.58;55.17
84043;BME280;74129;52.540;13.416;2024-01-10T06:53:41;102709.10;;;-4.54;55.13
84043;BME280;74129;52.540;13.416;2024-01-10T06:56:14;102711.48;;;-4.48;55.12
84043;BME280;74129;52.540;13.416;2024-01-10T07:01:42;102711.23;;;-4.41;55.18
84043;BME280;74129;52.540;13.416;2024-01-10T07:04:09;102708.12;;;-4.39;54.92
84043;BME280;74129;52.540;13.416;2024-01-10T07:06:38;102702.02;;;-4.39;54.85
84043;BME280;74129;52.540;13.416;2024-01-10T07:09:07;102703.90;;;-4.42;54.99
84043;BME280;74129;52.540;13.416;2024-01-10T07:11:51;102704.33;;;-4.40;55.17
84043;BME280;74129;52.540;13.416;2024-01-10T07:14:21;102700.14;;;-4.38;55.24
84043;BME280;74129;52.540;13.416;2024-01-10T07:16:53;102697.10;;;-4.34;55.22
84043;BME280;74129;52.540;13.416;2024-01-10T07:19:23;102694.28;;;-4.34;55.21
84043;BME280;74129;52.540;13.416;2024-01-10T07:21:58;102697.50;;;-4.32;54.96
84043;BME280;74129;52.540;13.416;2024-01-10T07:24:30;102697.11;;;-4.34;55.02
84043;BME280;74129;52.540;13.416;2024-01-10T07:27:01;102698.88;;;-4.37;54.92
84043;BME280;74129;52.540;13.416;2024-01-10T07:29:30;102700.63;;;-4.40;54.88
84043;BME280;74129;52.540;13.416;2024-01-10T07:32:16;102699.31;;;-4.35;55.24
84043;BME280;74129;52.540;13.416;2024-01-10T07:34:51;102699.80;;;-4.28;55.08
84043;BME280;74129;52.540;13.416;2024-01-10T07:37:20;102702.39;;;-4.22;55.08
84043;BME280;74129;52.540;13.416;2024-01-10T07:39:49;102704.39;;;-4.20;55.16
84043;BME280;74129;52.540;13.416;2024-01-10T07:42:20;102699.45;;;-4.25;54.97
84043;BME280;74129;52.540;13.416;2024-01-10T07:44:54;102708.77;;;-4.20;54.85
84043;BME280;74129;52.540;13.416;2024-01-10T07:47:23;102714.25;;;-4.16;54.97
84043;BME280;74129;52.540;13.416;2024-01-10T07:49:55;102715.52;;;-4.14;54.96
84043;BME280;74129;52.540;13.416;2024-01-10T07:52:25;102721.05;;;-4.10;54.61
84043;BME280;74129;52.540;13.416;2024-01-10T07:55:07;102722.16;;;-4.09;54.46
84043;BME280;74129;52.540;13.416;2024-01-10T07:57:47;102719.42;;;-4.02;54.70
84043;BME280;74129;52.540;13.416;2024-01-10T08:00:17;102715.69;;;-3.94;54.50
84043;BME280;74129;52.540;13.416;2024-01-10T08:02:49;102710.23;;;-3.89;54.62
84043;BME280;74129;52.540;13.416;2024-01-10T08:05:37;102714.67;;;-3.77;54.56
84043;BME280;74129;52.540;13.416;2024-01-10T08:08:18;102710.18;;;-3.70;54.07
84043;BME280;74129;52.540;13.416;2024-01-10T08:10:47;102707.08;;;-3.66;54.18
84043;BME280;74129;52.540;13.416;2024-01-10T08:13:14;102705.86;;;-3.66;53.82
84043;BME280;74129;52.540;13.416;2024-01-10T08:15:41;102709.10;;;-3.63;53.93
84043;BME280;74129;52.540;13.416;2024-01-10T08:18:17;102712.33;;;-3.61;53.82
84043;BME280;74129;52.540;13.416;2024-01-10T08:20:52;102711.77;;;-3.61;53.63
84043;BME280;74129;52.540;13.416;2024-01-10T08:23:31;102715.05;;;-3.55;53.44
84043;BME280;74129;52.540;13.416;2024-01-10T08:26:03;102713.70;;;-3.51;53.39
84043;BME280;74129;52.540;13.416;2024-01-10T08:28:35;102715.02;;;-3.45;53.19
84043;BME280;74129;52.540;13.416;2024-01-10T08:31:06;102719.98;;;-3.36;53.33
84043;BME280;74129;52.540;13.416;2024-01-10T08:33:33;102723.04;;;-3.30;53.07
84043;BME280;74129;52.540;13.416;2024-01-10T08:36:03;102724.36;;;-3.28;52.92
84043;BME280;74129;52.540;13.416;2024-01-10T08:38:29;102723.50;;;-3.26;52.85
84043;BME280;74129;52.540;13.416;2024-01-10T08:40:59;102721.77;;;-3.19;52.88
84043;BME280;74129;52.540;13.416;2024-01-10T08:43:26;102723.44;;;-3.11;52.65
84043;BME280;74129;52.540;13.416;2024-01-10T08:45:52;102728.92;;;-3.07;52.36
84043;BME280;74129;52.540;13.416;2024-01-10T08:48:33;102729.21;;;-3.05;52.47
84043;BME280;74129;52.540;13.416;2024-01-10T08:51:03;102724.95;;;-3.03;52.43
84043;BME280;74129;52.540;13.416;2024-01-10T08:53:30;102725.27;;;-2.95;52.37
84043;BME280;74129;52.540;13.416;2024-01-10T08:55:56;102728.98;;;-2.86;52.22
84043;BME280;74129;52.540;13.416;2024-01-10T08:58:23;102733.79;;;-2.79;51.94
84043;BME280;74129;52.540;13.416;2024-01-10T09:00:55;102727.56;;;-2.74;52.03
84043;BME280;74129;52.540;13.416;2024-01-10T09:03:22;102725.61;;;-2.66;52.07
84043;BME280;74129;52.540;13.416;2024-01-10T09:06:12;102722.40;;;-2.63;51.88
84043;BME280;74129;52.540;13.416;2024-01-10T09:09:05;102725.39;;;-2.61;52.04
84043;BME280;74129;52.540;13.416;2024-01-10T09:12:15;102727.25;;;-2.56;51.75
84043;BME280;74129;52.540;13.416;2024-01-10T09:14:53;102725.73;;;-2.47;51.76
84043;BME280;74129;52.540;13.416;2024-01-10T09:17:26;102727.15;;;-2.33;51.62
84043;BME280;74129;52.540;13.416;2024-01-10T09:19:53;102725.99;;;-2.25;51.53
84043;BME280;74129;52.540;13.416;2024-01-10T09:22:26;102721.31;;;-2.22;51.47
84043;BME280;74129;52.540;13.416;2024-01-10T09:24:56;102722.45;;;-2.14;51.17
84043;BME280;74129;52.540;13.416;2024-01-10T09:27:33;102718.55;;;-2.06;51.13
84043;BME280;74129;52.540;13.416;2024-01-10T09:30:05;102716.88;;;-2.01;50.91
84043;BME280;74129;52.540;13.416;2024-01-10T09:32:39;102714.69;;;-1.91;50.98
84043;BME280;74129;52.540;13.416;2024-01-10T09:35:11;102716.11;;;-1.82;50.41
84043;BME280;74129;52.540;13.416;2024-01-10T09:37:49;102716.02;;;-1.74;50.47
84043;BME280;74129;52.540;13.416;2024-01-10T09:40:20;102710.90;;;-1.69;50.47
84043;BME280;74129;52.540;13.416;2024-01-10T09:42:59;102710.83;;;-1.64;50.56
84043;BME280;74129;52.540;13.416;2024-01-10T09:45:37;102711.77;;;-1.56;50.46
84043;BME280;74129;52.540;13.416;2024-01-10T09:48:22;102711.02;;;-1.48;50.54
84043;BME280;74129;52.540;13.416;2024-01-10T09:51:29;102707.20;;;-1.40;50.34
84043;BME280;74129;52.540;13.416;2024-01-10T09:56:57;102705.86;;;-1.24;49.95
84043;BME280;74129;52.540;13.416;2024-01-10T09:59:42;102707.24;;;-1.21;50.12
84043;BME280;74129;52.540;13.416;2024-01-10T10:02:10;102706.76;;;-1.20;49.87
84043;BME280;74129;52.540;13.416;2024-01-10T10:04:38;102706.66;;;-1.14;49.78
84043;BME280;74129;52.540;13.416;2024-01-10T10:07:20;102708.19;;;-1.14;49.50
84043;BME280;74129;52.540;13.416;2024-01-10T10:09:58;102709.81;;;-1.16;49.27
84043;BME280;74129;52.540;13.416;2024-01-10T10:13:03;102707.91;;;-1.12;49.65
84043;BME280;74129;52.540;13.416;2024-01-10T10:15:42;102704.20;;;-1.10;49.56
84043;BME280;74129;52.540;13.416;2024-01-10T10:18:16;102703.08;;;-1.07;49.54
84043;BME280;74129;52.540;13.416;2024-01-10T10:21:03;102698.08;;;-1.00;49.37
84043;BME280;74129;52.540;13.416;2024-01-10T10:23:41;102696.23;;;-0.90;49.49
84043;BME280;74129;52.540;13.416;2024-01-10T10:26:15;102690.30;;;-0.80;49.48
84043;BME280;74129;52.540;13.416;2024-01-10T10:28:51;102684.14;;;-0.70;49.09
84043;BME280;74129;52.540;13.416;2024-01-10T10:31:28;102683.34;;;-0.60;48.96
84043;BME280;74129;52.540;13.416;2024-01-10T10:33:55;102681.40;;;-0.50;48.67
84043;BME280;74129;52.540;13.416;2024-01-10T10:36:22;102677.14;;;-0.49;48.13
84043;BME280;74129;52.540;13.416;2024-01-10T10:38:53;102674.27;;;-0.47;48.11
84043;BME280;74129;52.540;13.416;2024-01-10T10:41:27;102672.52;;;-0.34;48.46
84043;BME280;74129;52.540;13.416;2024-01-10T10:44:09;102670.81;;;-0.17;48.53
84043;BME280;74129;52.540;13.416;2024-01-10T10:46:40;102662.02;;;-0.07;47.74
84043;BME280;74129;52.540;13.416;2024-01-10T10:49:11;102660.76;;;0.04;48.07
84043;BME280;74129;52.540;13.416;2024-01-10T10:51:45;102669.73;;;0.14;47.17
84043;BME280;74129;52.540;13.416;2024-01-10T10:54:31;102670.52;;;0.23;47.25
84043;BME280;74129;52.540;13.416;2024-01-10T10:57:18;102672.17;;;0.36;46.98
84043;BME280;74129;52.540;13.416;2024-01-10T10:59:59;102672.16;;;0.45;46.87
84043;BME280;74129;52.540;13.416;2024-01-10T11:05:43;102672.33;;;0.66;46.59
84043;BME280;74129;52.540;13.416;2024-01-10T11:08:23;102674.86;;;0.76;46.39
84043;BME280;74129;52.540;13.416;2024-01-10T11:10:53;102676.88;;;0.86;46.38
84043;BME280;74129;52.540;13.416;2024-01-10T11:13:38;102673.02;;;0.85;45.97
84043;BME280;74129;52.540;13.416;2024-01-10T11:16:38;102670.18;;;0.94;45.84
84043;BME280;74129;52.540;13.416;2024-01-10T11:19:53;102668.72;;;1.00;45.75
84043;BME280;74129;52.540;13.416;2024-01-10T11:25:39;102662.94;;;1.28;45.34
84043;BME280;74129;52.540;13.416;2024-01-10T11:28:15;102663.66;;;1.32;44.54
84043;BME280;74129;52.540;13.416;2024-01-10T11:30:54;102662.70;;;1.39;44.61
84043;BME280;74129;52.540;13.416;2024-01-10T11:33:35;102655.04;;;1.43;44.57
84043;BME280;74129;52.540;13.416;2024-01-10T11:36:18;102664.27;;;1.58;44.43
84043;BME280;74129;52.540;13.416;2024-01-10T11:38:58;102659.89;;;1.69;44.49
84043;BME280;74129;52.540;13.416;2024-01-10T11:41:43;102660.96;;;1.76;43.94
84043;BME280;74129;52.540;13.416;2024-01-10T11:46:50;102654.29;;;1.89;43.61
84043;BME280;74129;52.540;13.416;2024-01-10T11:49:24;102646.04;;;1.96;43.99
84043;BME280;74129;52.540;13.416;2024-01-10T11:51:56;102646.21;;;2.05;43.90
84043;BME280;74129;52.540;13.416;2024-01-10T11:57:25;102638.42;;;2.16;43.31
84043;BME280;74129;52.540;13.416;2024-01-10T12:00:00;102638.91;;;2.22;43.41
84043;BME280;74129;52.540;13.416;2024-01-10T12:02:29;102636.20;;;2.22;42.90
84043;BME280;74129;52.540;13.416;2024-01-10T12:05:42;102631.41;;;2.22;42.66
84043;BME280;74129;52.540;13.416;2024-01-10T12:08:09;102626.94;;;2.25;42.97
84043;BME280;74129;52.540;13.416;2024-01-10T12:10:38;102623.02;;;2.32;42.61
84043;BME280;74129;52.540;13.416;2024-01-10T12:13:08;102622.40;;;2.39;41.97
84043;BME280;74129;52.540;13.416;2024-01-10T12:15:46;102615.02;;;2.35;42.16
84043;BME280;74129;52.540;13.416;2024-01-10T12:18:25;102616.89;;;2.44;41.77
84043;BME280;74129;52.540;13.416;2024-01-10T12:20:55;102611.73;;;2.50;41.90
84043;BME280;74129;52.540;13.416;2024-01-10T12:23:35;102611.46;;;2.55;42.24
84043;BME280;74129;52.540;13.416;2024-01-10T12:26:21;102606.14;;;2.62;41.93
84043;BME280;74129;52.540;13.416;2024-01-10T12:29:03;102601.39;;;2.70;42.17
84043;BME280;74129;52.540;13.416;2024-01-10T12:31:36;102598.44;;;2.79;41.81
84043;BME280;74129;52.540;13.416;2024-01-10T12:34:33;102596.33;;;2.82;41.86
84043;BME280;74129;52.540;13.416;2024-01-10T12:37:10;102594.36;;;2.85;41.76
84043;BME280;74129;52.540;13.416;2024-01-10T12:39:40;102596.83;;;2.82;41.32
84043;BME280;74129;52.540;13.416;2024-01-10T12:42:27;102592.37;;;2.68;41.19
84043;BME280;74129;52.540;13.416;2024-01-10T12:44:59;102589.65;;;2.64;41.26
84043;BME280;74129;52.540;13.416;2024-01-10T12:47:53;102589.71;;;2.52;41.55
84043;BME280;74129;52.540;13.416;2024-01-10T12:53:00;102590.52;;;2.55;42.00
84043;BME280;74129;52.540;13.416;2024-01-10T12:55:27;102589.73;;;2.54;41.78
84043;BME280;74129;52.540;13.416;2024-01-10T12:57:57;102588.39;;;2.55;41.84
84043;BME280;74129;52.540;13.416;2024-01-10T13:00:45;102590.41;;;2.60;41.80
84043;BME280;74129;52.540;13.416;2024-01-10T13:03:16;102588.05;;;2.67;41.76
84043;BME280;74129;52.540;13.416;2024-01-10T13:05:46;102584.04;;;2.77;42.12
84043;BME280;74129;52.540;13.416;2024-01-10T13:08:12;102580.16;;;2.79;41.66
84043;BME280;74129;52.540;13.416;2024-01-10T13:10:40;102580.13;;;2.88;41.83
84043;BME280;74129;52.540;13.416;2024-01-10T13:13:07;102580.55;;;2.96;42.09
84043;BME280;74129;52.540;13.416;2024-01-10T13:15:35;102580.09;;;3.06;41.52
84043;BME280;74129;52.540;13.416;2024-01-10T13:18:05;102574.17;;;3.10;41.70
84043;BME280;74129;52.540;13.416;2024-01-10T13:20:44;102574.35;;;3.14;41.11
84043;BME280;74129;52.540;13.416;2024-01-10T13:23:11;102573.00;;;3.09;41.31
84043;BME280;74129;52.540;13.416;2024-01-10T13:25:38;102573.49;;;3.15;41.93
84043;BME280;74129;52.540;13.416;2024-01-10T13:28:15;102575.52;;;3.18;41.10
84043;BME280;74129;52.540;13.416;2024-01-10T13:30:51;102574.68;;;3.19;41.09
84043;BME280;74129;52.540;13.416;2024-01-10T13:33:27;102568.23;;;3.13;40.54
84043;BME280;74129;52.540;13.416;2024-01-10T13:36:07;102574.27;;;3.12;41.34
84043;BME280;74129;52.540;13.416;2024-01-10T13:38:56;102570.38;;;3.19;41.56